createdAt,value
2023-05-02T00:01:16.317Z,99917.63
2023-05-02T00:05:18.230Z,99919.95
2023-05-02T00:09:20.912Z,99926.52
2023-05-02T00:13:22.641Z,99928.40
2023-05-02T00:17:24.849Z,99921.68
2023-05-02T00:21:28.737Z,99923.01
2023-05-02T00:25:30.806Z,99925.73
2023-05-02T00:29:32.704Z,99920.05
2023-05-02T00:33:34.825Z,99911.43
2023-05-02T00:37:36.867Z,99906.80
2023-05-02T00:41:39.069Z,99905.27
2023-05-02T00:45:48.546Z,99904.75
2023-05-02T00:49:50.673Z,99908.37
2023-05-02T00:53:52.999Z,99914.27
2023-05-02T00:57:55.074Z,99919.84
2023-05-02T01:02:32.229Z,99919.94
2023-05-02T01:06:53.791Z,99924.44
2023-05-02T01:11:28.982Z,99930.94
2023-05-02T01:15:34.233Z,99939.30
2023-05-02T01:19:39.979Z,99942.69
2023-05-02T01:24:02.516Z,99955.06
2023-05-02T01:28:26.284Z,99959.39
2023-05-02T01:32:32.988Z,99958.00
2023-05-02T01:36:37.664Z,99964.21
2023-05-02T01:40:41.195Z,99968.85
2023-05-02T01:44:45.344Z,99971.33
2023-05-02T01:48:51.065Z,99970.34
2023-05-02T01:52:54.860Z,99970.40
2023-05-02T01:56:58.112Z,99966.75
2023-05-02T02:01:01.076Z,99973.73
2023-05-02T02:05:05.967Z,99970.89
2023-05-02T02:09:08.245Z,99976.02
2023-05-02T02:13:35.321Z,99981.01
2023-05-02T02:17:45.820Z,99985.50
2023-05-02T02:21:49.776Z,99987.13
2023-05-02T02:25:52.995Z,99982.14
2023-05-02T02:29:54.697Z,99992.59
2023-05-02T02:33:56.825Z,100005.63
2023-05-02T02:38:07.643Z,100010.39
2023-05-02T02:42:18.335Z,100011.06
2023-05-02T02:47:01.052Z,100020.20
2023-05-02T02:51:37.895Z,100023.88
2023-05-02T02:55:47.740Z,100029.18
2023-05-02T02:59:59.483Z,100034.65
2023-05-02T03:04:06.426Z,100041.10
2023-05-02T03:08:08.453Z,100046.40
2023-05-02T03:12:10.727Z,100050.85
2023-05-02T03:16:34.120Z,100051.66
2023-05-02T03:20:38.249Z,100062.88
2023-05-02T03:24:40.821Z,100070.52
2023-05-02T03:28:46.139Z,100074.81
2023-05-02T03:32:49.347Z,100073.73
2023-05-02T03:36:51.413Z,100073.20
2023-05-02T03:40:57.800Z,100064.84
2023-05-02T03:44:59.938Z,100071.96
2023-05-02T03:49:01.967Z,100074.27
2023-05-02T03:53:03.933Z,100079.94
2023-05-02T03:57:06.410Z,100084.09
2023-05-02T04:01:15.443Z,100086.73
2023-05-02T04:05:20.501Z,100095.02
2023-05-02T04:09:25.090Z,100103.80
2023-05-02T04:13:28.826Z,100103.70
2023-05-02T04:17:31.023Z,100111.73
2023-05-02T04:21:36.832Z,100116.50
2023-05-02T04:25:38.998Z,100117.33
2023-05-02T04:29:41.021Z,100124.13
2023-05-02T04:33:42.858Z,100124.88
2023-05-02T04:37:44.839Z,100131.23
2023-05-02T04:41:46.718Z,100130.86
2023-05-02T04:45:48.773Z,100136.51
2023-05-02T04:49:50.798Z,100139.03
2023-05-02T04:53:52.780Z,100146.02
2023-05-02T04:57:55.113Z,100149.85
2023-05-02T05:01:57.238Z,100150.48
2023-05-02T05:05:59.495Z,100155.58
2023-05-02T05:10:02.297Z,100161.92
2023-05-02T05:14:04.525Z,100166.48
2023-05-02T05:18:06.633Z,100167.58
2023-05-02T05:22:08.501Z,100174.60
2023-05-02T05:26:18.006Z,100179.95
2023-05-02T05:30:19.994Z,100185.48
2023-05-02T05:34:22.085Z,100188.66
2023-05-02T05:38:24.342Z,100191.38
2023-05-02T05:42:26.348Z,100195.94
2023-05-02T05:46:28.252Z,100203.05
2023-05-02T05:50:30.081Z,100205.95
2023-05-02T05:54:32.061Z,100207.41
2023-05-02T05:58:33.896Z,100217.55
2023-05-02T06:02:35.939Z,100225.66
2023-05-02T06:06:38.308Z,100229.72
2023-05-02T06:10:41.262Z,100230.13
2023-05-02T06:14:45.710Z,100232.96
2023-05-02T06:18:50.875Z,100241.55
2023-05-02T06:22:52.769Z,100246.02
2023-05-02T06:26:54.550Z,100249.45
2023-05-02T06:31:02.786Z,100253.93
2023-05-02T06:35:05.466Z,100254.80
2023-05-02T06:39:08.475Z,100262.04
2023-05-02T06:43:12.080Z,100265.84
2023-05-02T06:47:14.098Z,100262.71
2023-05-02T06:51:18.870Z,100267.59
2023-05-02T06:55:21.217Z,100268.17
2023-05-02T06:59:23.687Z,100272.86
2023-05-02T07:03:26.932Z,100277.82
2023-05-02T07:07:29.127Z,100281.60
2023-05-02T07:11:32.158Z,100285.92
2023-05-02T07:15:35.471Z,100291.89
2023-05-02T07:19:37.332Z,100296.94
2023-05-02T07:23:40.018Z,100298.21
2023-05-02T07:27:42.704Z,100309.34
2023-05-02T07:31:45.716Z,100310.29
2023-05-02T07:35:49.563Z,100315.70
2023-05-02T07:39:52.573Z,100314.28
2023-05-02T07:43:59.212Z,100316.57
2023-05-02T07:48:03.704Z,100320.59
2023-05-02T07:52:07.026Z,100321.73
2023-05-02T07:56:09.534Z,100328.13
2023-05-02T08:00:13.157Z,100332.49
2023-05-02T08:04:15.733Z,100333.50
2023-05-02T08:08:18.167Z,100338.16
2023-05-02T08:12:20.486Z,100342.26
2023-05-02T08:16:22.427Z,100350.56
2023-05-02T08:20:24.474Z,100352.02
2023-05-02T08:24:26.857Z,100354.01
2023-05-02T08:28:30.038Z,100355.45
2023-05-02T08:32:32.533Z,100360.33
2023-05-02T08:36:34.704Z,100365.02
2023-05-02T08:40:41.459Z,100368.77
2023-05-02T08:44:44.607Z,100364.64
2023-05-02T08:48:49.483Z,100374.33
2023-05-02T08:52:56.684Z,100378.70
2023-05-02T08:56:59.241Z,100376.50
2023-05-02T09:01:09.044Z,100380.45
2023-05-02T09:05:12.388Z,100384.35
2023-05-02T09:09:14.233Z,100391.27
2023-05-02T09:13:30.508Z,100389.21
2023-05-02T09:17:44.857Z,100397.88
2023-05-02T09:21:46.883Z,100398.13
2023-05-02T09:25:48.918Z,100403.55
2023-05-02T09:30:21.402Z,100411.02
2023-05-02T09:34:23.942Z,100411.81
2023-05-02T09:38:25.891Z,100417.59
2023-05-02T09:42:32.781Z,100420.79
2023-05-02T09:46:43.041Z,100426.59
2023-05-02T09:50:45.176Z,100432.72
2023-05-02T09:54:50.068Z,100433.84
2023-05-02T09:59:11.335Z,100438.50
2023-05-02T10:03:17.178Z,100439.95
2023-05-02T10:07:19.019Z,100449.88
2023-05-02T10:11:21.307Z,100448.42
2023-05-02T10:15:26.947Z,100452.39
2023-05-02T10:20:00.274Z,100448.02
2023-05-02T10:24:05.443Z,100450.08
2023-05-02T10:28:09.322Z,100453.34
2023-05-02T10:32:12.166Z,100449.31
2023-05-02T10:36:14.911Z,100454.54
2023-05-02T10:40:18.369Z,100453.48
2023-05-02T10:44:37.170Z,100457.38
2023-05-02T10:48:39.362Z,100461.05
2023-05-02T10:52:42.130Z,100462.45
2023-05-02T10:56:58.828Z,100464.08
2023-05-02T11:01:28.019Z,100465.44
2023-05-02T11:05:30.235Z,100458.05
2023-05-02T11:09:33.188Z,100461.86
2023-05-02T11:13:49.123Z,100457.66
2023-05-02T11:22:59.498Z,100465.16
2023-05-02T11:28:01.112Z,100469.02
2023-05-02T11:32:10.060Z,100477.10
2023-05-02T11:36:29.515Z,100480.36
2023-05-02T11:40:45.381Z,100480.58
2023-05-02T11:44:59.117Z,100484.48
2023-05-02T11:49:27.388Z,100489.51
2023-05-02T11:53:32.396Z,100495.92
2023-05-02T11:57:37.743Z,100493.96
2023-05-02T12:01:50.356Z,100496.16
2023-05-02T12:05:57.354Z,100496.31
2023-05-02T12:10:25.395Z,100500.70
2023-05-02T12:14:40.956Z,100499.18
2023-05-02T12:19:16.173Z,100504.36
2023-05-02T12:23:30.639Z,100507.55
2023-05-02T12:27:38.799Z,100511.70
2023-05-02T12:31:52.087Z,100507.89
2023-05-02T12:36:11.264Z,100511.62
2023-05-02T12:40:20.199Z,100511.11
2023-05-02T12:44:46.221Z,100512.77
2023-05-02T12:53:40.219Z,100512.02
2023-05-02T12:57:42.606Z,100515.94
2023-05-02T13:01:44.369Z,100519.21
2023-05-02T13:05:46.186Z,100516.00
2023-05-02T13:09:48.068Z,100522.61
2023-05-02T13:13:49.917Z,100524.21
2023-05-02T13:17:52.356Z,100518.27
2023-05-02T13:21:54.259Z,100526.35
2023-05-02T13:25:55.998Z,100522.23
2023-05-02T13:29:57.617Z,100523.45
2023-05-02T13:33:59.395Z,100525.33
2023-05-02T13:38:00.943Z,100526.81
2023-05-02T13:42:05.895Z,100530.26
2023-05-02T13:46:08.037Z,100535.59
2023-05-02T13:50:10.047Z,100534.06
2023-05-02T13:54:11.691Z,100538.42
2023-05-02T13:58:14.068Z,100540.44
2023-05-02T14:02:16.531Z,100544.03
2023-05-02T14:06:18.284Z,100544.05
2023-05-02T14:10:19.902Z,100552.44
2023-05-02T14:14:21.475Z,100553.39
2023-05-02T14:18:23.233Z,100554.41
2023-05-02T14:22:24.823Z,100558.31
2023-05-02T14:26:26.451Z,100559.13
2023-05-02T14:30:28.581Z,100569.39
2023-05-02T14:34:30.340Z,100571.75
2023-05-02T14:38:31.884Z,100573.61
2023-05-02T14:42:33.450Z,100579.95
2023-05-02T14:46:35.128Z,100586.70
2023-05-02T14:50:38.970Z,100587.94
2023-05-02T14:54:40.439Z,100584.94
2023-05-02T14:58:42.508Z,100586.91
2023-05-02T15:02:44.466Z,100591.32
2023-05-02T15:06:47.590Z,100595.61
2023-05-02T15:10:49.790Z,100599.19
2023-05-02T15:14:52.904Z,100602.36
2023-05-02T15:18:55.296Z,100603.75
2023-05-02T15:23:02.587Z,100607.05
2023-05-02T15:27:04.438Z,100612.20
2023-05-02T15:31:06.256Z,100616.86
2023-05-02T15:35:08.696Z,100621.43
2023-05-02T15:39:10.520Z,100624.23
2023-05-02T15:43:12.324Z,100623.97
2023-05-02T15:47:14.216Z,100630.19
2023-05-02T15:51:17.601Z,100632.55
2023-05-02T15:55:19.896Z,100634.38
2023-05-02T15:59:21.946Z,100638.63
2023-05-02T16:03:24.165Z,100644.95
2023-05-02T16:07:26.180Z,100648.52
2023-05-02T16:11:28.110Z,100651.34
2023-05-02T16:15:29.923Z,100654.27
2023-05-02T16:19:33.155Z,100657.86
2023-05-02T16:23:34.818Z,100664.48
2023-05-02T16:27:36.745Z,100666.14
2023-05-02T16:31:38.709Z,100666.42
2023-05-02T16:35:40.738Z,100668.74
2023-05-02T16:39:42.966Z,100670.65
2023-05-02T16:43:45.014Z,100675.20
2023-05-02T16:47:46.931Z,100678.35
2023-05-02T16:51:50.899Z,100678.03
2023-05-02T16:55:53.578Z,100681.52
2023-05-02T16:59:55.961Z,100685.14
2023-05-02T17:03:57.876Z,100690.98
2023-05-02T17:07:59.705Z,100695.83
2023-05-02T17:12:02.332Z,100701.68
2023-05-02T17:16:04.985Z,100707.45
2023-05-02T17:20:07.300Z,100714.34
2023-05-02T17:24:09.052Z,100717.06
2023-05-02T17:28:10.958Z,100725.09
2023-05-02T17:32:15.172Z,100729.58
2023-05-02T17:36:16.997Z,100736.11
2023-05-02T17:40:18.971Z,100737.89
2023-05-02T17:44:21.303Z,100739.86
2023-05-02T17:48:23.787Z,100742.52
2023-05-02T17:52:25.664Z,100750.68
2023-05-02T17:56:27.954Z,100756.56
2023-05-02T18:00:29.877Z,100758.35
2023-05-02T18:04:31.685Z,100764.38
2023-05-02T18:08:33.447Z,100777.90
2023-05-02T18:12:35.387Z,100780.37
2023-05-02T18:16:37.264Z,100789.44
2023-05-02T18:20:40.032Z,100795.48
2023-05-02T18:24:42.079Z,100806.48
2023-05-02T18:28:46.105Z,100808.96
2023-05-02T18:32:47.855Z,100814.86
2023-05-02T18:36:50.356Z,100828.73
2023-05-02T18:40:52.570Z,100836.57
2023-05-02T18:44:54.577Z,100844.62
2023-05-02T18:48:56.521Z,100852.50
2023-05-02T18:52:58.214Z,100852.93
2023-05-02T18:57:01.503Z,100854.56
2023-05-02T19:01:14.738Z,100860.67
2023-05-02T19:05:16.892Z,100873.48
2023-05-02T19:09:19.181Z,100878.98
2023-05-02T19:13:21.773Z,100886.84
2023-05-02T19:17:26.328Z,100888.70
2023-05-02T19:21:27.922Z,100895.52
2023-05-02T19:25:29.490Z,100898.36
2023-05-02T19:29:31.272Z,100903.73
2023-05-02T19:33:32.921Z,100905.08
2023-05-02T19:37:34.800Z,100914.36
2023-05-02T19:41:36.506Z,100921.60
2023-05-02T19:45:38.398Z,100928.34
2023-05-02T19:49:43.306Z,100927.83
2023-05-02T19:53:45.008Z,100934.16
2023-05-02T19:57:47.950Z,100936.77
2023-05-02T20:01:49.748Z,100939.92
2023-05-02T20:05:52.134Z,100945.02
2023-05-02T20:09:53.968Z,100952.02
2023-05-02T20:13:55.681Z,100956.20
2023-05-02T20:17:59.070Z,100964.05
2023-05-02T20:22:00.884Z,100970.78
2023-05-02T20:26:03.967Z,100972.55
2023-05-02T20:30:08.060Z,100977.27
2023-05-02T20:34:09.952Z,100979.86
2023-05-02T20:38:11.883Z,100982.42
2023-05-02T20:42:17.247Z,100983.58
2023-05-02T20:46:19.484Z,100987.89
2023-05-02T20:50:21.573Z,100991.04
2023-05-02T20:54:27.099Z,100992.42
2023-05-02T20:58:29.229Z,100995.96
2023-05-02T21:02:31.180Z,101000.54
2023-05-02T21:06:33.688Z,101004.49
2023-05-02T21:10:36.765Z,101007.42
2023-05-02T21:14:38.783Z,101006.88
2023-05-02T21:18:41.287Z,101008.81
2023-05-02T21:22:43.054Z,101012.55
2023-05-02T21:26:45.292Z,101015.73
2023-05-02T21:30:47.450Z,101016.98
2023-05-02T21:34:49.398Z,101018.48
2023-05-02T21:38:51.285Z,101022.10
2023-05-02T21:42:53.155Z,101029.69
2023-05-02T21:46:55.487Z,101036.21
2023-05-02T21:50:57.404Z,101040.93
2023-05-02T21:54:59.337Z,101046.16
2023-05-02T21:59:01.171Z,101050.86
2023-05-02T22:03:11.449Z,101060.73
2023-05-02T22:07:17.369Z,101066.95
2023-05-02T22:11:26.355Z,101076.89
2023-05-02T22:15:29.243Z,101081.39
2023-05-02T22:19:31.808Z,101082.93
2023-05-02T22:23:33.798Z,101091.98
2023-05-02T22:27:35.761Z,101091.89
2023-05-02T22:31:38.085Z,101096.56
2023-05-02T22:35:40.157Z,101104.80
2023-05-02T22:39:42.879Z,101110.65
2023-05-02T22:43:47.983Z,101115.98
2023-05-02T22:47:50.883Z,101119.21
2023-05-02T22:51:59.313Z,101123.41
2023-05-02T22:56:03.907Z,101129.55
2023-05-02T23:00:09.037Z,101129.91
2023-05-02T23:04:11.447Z,101137.44
2023-05-02T23:08:13.665Z,101138.48
2023-05-02T23:12:16.026Z,101138.28
2023-05-02T23:16:18.607Z,101139.19
2023-05-02T23:20:22.534Z,101139.44
2023-05-02T23:24:24.472Z,101140.16
2023-05-02T23:28:30.232Z,101136.91
2023-05-02T23:32:34.307Z,101137.75
2023-05-02T23:36:37.027Z,101138.62
2023-05-02T23:40:39.100Z,101146.06
2023-05-02T23:44:41.141Z,101147.82
2023-05-02T23:48:43.214Z,101141.84
2023-05-02T23:52:45.287Z,101144.02
2023-05-02T23:56:47.365Z,101145.52
